Portada
METAR-TAF:

METAR-TAF

Aeroports :

Aeroport Internacional Príncep Said Ibrahim

Moroni, Comores

latitud: 11-32S, longitud: 043-16E, altitud: 29 m

Observació

L'informe es va fer fa 1 hora i 26 minuts, a les 12:00 UTC
Vent 17 kt del Sud/Sud-Oest
Temperatura 30°C
Humitat 70%
Pressió 1014 hPa
Visibilitat 10 km o més
Núvols disperses a una alçada de 2400 ft

METAR: FMCH 301200Z 21017KT 9999 SCT024 30/24 Q1014 NOSIG

Hora: 16:26 (13:26 UTC)

Pronòstic

L'informe es va fer fa 2 hores i 26 minuts, a les 11:00 UTC
Pronòstic vàlid del 30 a les 12 UTC al 31 a les 18 UTC
Vent 15 kt del Sud/Sud-Oest
Visibilitat 10 km o més
Escasses núvols a una alçada de 2000 ft
Evolucionant progressivament
l' 30 a les 16 UTC al 30 a les 18 UTC
Vent 5 kt del Est
Evolucionant progressivament
l' 31 a les 05 UTC al 31 a les 07 UTC
Vent 15 kt del Sud/Sud-Oest

TAF: FMCH 301100Z 3012/3118 21015KT 9999 FEW020 BECMG 3016/3018 10005KT BECMG 3105/3107 21015KT

Observacions i pronòstics meteorològics de més de 4000 aeroports (METAR i TAF).

Les estacions disponibles són els punts grocs i vermells al mapa.

Posi el ratolí al punt desitjat per veure el nom de l'estació.

Feu clic per veure les observacions i els pronòstics meteorològics.

Per canviar el mapa: feu clic els botons verds amb una creu de color negre per apropar; al botó verd amb un guió per allunyar la imatge; o en les fletxes verdes per a mapes adjacents.


METAR-TAF: